sensor_id;sensor_type;location;lat;lon;timestamp;pressure;altitude;pressure_sealevel;temperature;humidity
9695;BME280;4690;52.422;13.486;2022-12-11T00:06:11;100845.81;;;1.34;71.95
9695;BME280;4690;52.422;13.486;2022-12-11T00:08:38;100843.09;;;1.34;72.02
9695;BME280;4690;52.422;13.486;2022-12-11T00:11:06;100833.47;;;1.31;71.49
9695;BME280;4690;52.422;13.486;2022-12-11T00:13:32;100841.41;;;1.25;72.70
9695;BME280;4690;52.422;13.486;2022-12-11T00:15:58;100837.34;;;1.29;72.30
9695;BME280;4690;52.422;13.486;2022-12-11T00:18:24;100834.66;;;1.29;71.85
9695;BME280;4690;52.422;13.486;2022-12-11T00:20:50;100833.66;;;1.30;72.33
9695;BME280;4690;52.422;13.486;2022-12-11T00:23:16;100828.94;;;1.32;72.02
9695;BME280;4690;52.422;13.486;2022-12-11T00:25:45;100825.06;;;1.34;72.24
9695;BME280;4690;52.422;13.486;2022-12-11T00:28:15;100825.06;;;1.34;72.36
9695;BME280;4690;52.422;13.486;2022-12-11T00:30:46;100828.94;;;1.32;72.25
9695;BME280;4690;52.422;13.486;2022-12-11T00:33:13;100836.50;;;1.28;72.26
9695;BME280;4690;52.422;13.486;2022-12-11T00:35:42;100835.66;;;1.28;72.36
9695;BME280;4690;52.422;13.486;2022-12-11T00:38:15;100843.59;;;1.29;71.87
9695;BME280;4690;52.422;13.486;2022-12-11T00:40:42;100834.50;;;1.30;71.96
9695;BME280;4690;52.422;13.486;2022-12-11T00:43:09;100830.44;;;1.34;71.96
9695;BME280;4690;52.422;13.486;2022-12-11T00:45:45;100825.22;;;1.33;72.26
9695;BME280;4690;52.422;13.486;2022-12-11T00:48:12;100821.50;;;1.34;71.94
9695;BME280;4690;52.422;13.486;2022-12-11T00:50:39;100831.13;;;1.37;72.30
9695;BME280;4690;52.422;13.486;2022-12-11T00:53:06;100828.09;;;1.40;72.30
9695;BME280;4690;52.422;13.486;2022-12-11T00:55:37;100824.56;;;1.39;72.39
9695;BME280;4690;52.422;13.486;2022-12-11T00:58:04;100829.28;;;1.37;72.41
9695;BME280;4690;52.422;13.486;2022-12-11T01:00:30;100829.28;;;1.37;71.84
9695;BME280;4690;52.422;13.486;2022-12-11T01:02:56;100826.25;;;1.40;72.02
9695;BME280;4690;52.422;13.486;2022-12-11T01:05:21;100830.81;;;1.40;71.53
9695;BME280;4690;52.422;13.486;2022-12-11T01:07:47;100824.56;;;1.39;72.08
9695;BME280;4690;52.422;13.486;2022-12-11T01:10:14;100824.56;;;1.39;71.85
9695;BME280;4690;52.422;13.486;2022-12-11T01:13:04;100827.25;;;1.39;72.35
9695;BME280;4690;52.422;13.486;2022-12-11T01:15:44;100828.09;;;1.40;71.84
9695;BME280;4690;52.422;13.486;2022-12-11T01:18:12;100833.16;;;1.43;72.06
9695;BME280;4690;52.422;13.486;2022-12-11T01:20:40;100833.03;;;1.44;72.34
9695;BME280;4690;52.422;13.486;2022-12-11T01:23:09;100834.19;;;1.42;72.20
9695;BME280;4690;52.422;13.486;2022-12-11T01:25:36;100841.28;;;1.43;72.15
9695;BME280;4690;52.422;13.486;2022-12-11T01:28:05;100842.13;;;1.43;71.83
9695;BME280;4690;52.422;13.486;2022-12-11T01:30:31;100835.72;;;1.44;72.57
9695;BME280;4690;52.422;13.486;2022-12-11T01:32:57;100841.13;;;1.44;72.37
9695;BME280;4690;52.422;13.486;2022-12-11T01:35:24;100836.06;;;1.41;72.17
9695;BME280;4690;52.422;13.486;2022-12-11T01:37:50;100840.09;;;1.45;71.77
9695;BME280;4690;52.422;13.486;2022-12-11T01:40:18;100835.03;;;1.42;71.85
9695;BME280;4690;52.422;13.486;2022-12-11T01:42:44;100834.00;;;1.43;72.57
9695;BME280;4690;52.422;13.486;2022-12-11T01:45:27;100830.66;;;1.41;72.47
9695;BME280;4690;52.422;13.486;2022-12-11T01:48:17;100833.53;;;1.48;72.54
9695;BME280;4690;52.422;13.486;2022-12-11T01:50:59;100836.22;;;1.48;72.34
9695;BME280;4690;52.422;13.486;2022-12-11T01:53:32;100835.88;;;1.43;71.54
9695;BME280;4690;52.422;13.486;2022-12-11T01:55:59;100836.22;;;1.40;72.40
9695;BME280;4690;52.422;13.486;2022-12-11T01:58:41;100836.91;;;1.42;71.84
9695;BME280;4690;52.422;13.486;2022-12-11T02:01:18;100837.75;;;1.42;72.19
9695;BME280;4690;52.422;13.486;2022-12-11T02:03:46;100839.06;;;1.46;72.23
9695;BME280;4690;52.422;13.486;2022-12-11T02:06:40;100837.25;;;1.47;72.03
9695;BME280;4690;52.422;13.486;2022-12-11T02:09:13;100838.75;;;1.41;72.26
9695;BME280;4690;52.422;13.486;2022-12-11T02:12:01;100840.28;;;1.44;71.64
9695;BME280;4690;52.422;13.486;2022-12-11T02:28:32;100837.34;;;1.29;71.45
9695;BME280;4690;52.422;13.486;2022-12-11T02:34:11;100824.50;;;1.15;71.26
9695;BME280;4690;52.422;13.486;2022-12-11T02:36:47;100829.56;;;1.18;71.82
9695;BME280;4690;52.422;13.486;2022-12-11T02:39:17;100831.25;;;1.19;71.83
9695;BME280;4690;52.422;13.486;2022-12-11T02:41:49;100822.16;;;1.20;72.05
9695;BME280;4690;52.422;13.486;2022-12-11T02:44:22;100826.84;;;1.18;71.72
9695;BME280;4690;52.422;13.486;2022-12-11T02:46:51;100832.25;;;1.18;72.39
9695;BME280;4690;52.422;13.486;2022-12-11T02:49:18;100825.53;;;1.22;72.36
9695;BME280;4690;52.422;13.486;2022-12-11T02:51:45;100833.28;;;1.17;71.87
9695;BME280;4690;52.422;13.486;2022-12-11T02:54:23;100830.25;;;1.20;72.22
9695;BME280;4690;52.422;13.486;2022-12-11T02:56:59;100826.50;;;1.12;71.45
9695;BME280;4690;52.422;13.486;2022-12-11T02:59:36;100833.75;;;1.12;72.50
9695;BME280;4690;52.422;13.486;2022-12-11T03:02:03;100825.84;;;1.10;72.34
9695;BME280;4690;52.422;13.486;2022-12-11T03:04:30;100827.19;;;1.15;72.11
9695;BME280;4690;52.422;13.486;2022-12-11T03:07:08;100829.19;;;1.12;71.56
9695;BME280;4690;52.422;13.486;2022-12-11T03:09:41;100825.66;;;1.12;71.64
9695;BME280;4690;52.422;13.486;2022-12-11T03:12:11;100826.34;;;1.14;72.11
9695;BME280;4690;52.422;13.486;2022-12-11T03:14:39;100827.16;;;1.06;72.45
9695;BME280;4690;52.422;13.486;2022-12-11T03:17:23;100822.97;;;1.12;71.99
9695;BME280;4690;52.422;13.486;2022-12-11T03:20:36;100823.50;;;1.16;72.74
9695;BME280;4690;52.422;13.486;2022-12-11T03:26:28;100824.84;;;1.20;72.31
9695;BME280;4690;52.422;13.486;2022-12-11T03:28:59;100838.34;;;1.20;72.52
9695;BME280;4690;52.422;13.486;2022-12-11T03:31:38;100833.28;;;1.17;72.69
9695;BME280;4690;52.422;13.486;2022-12-11T03:34:18;100833.59;;;1.14;72.79
9695;BME280;4690;52.422;13.486;2022-12-11T03:36:47;100821.13;;;1.21;71.90
9695;BME280;4690;52.422;13.486;2022-12-11T03:39:24;100831.25;;;1.19;72.36
9695;BME280;4690;52.422;13.486;2022-12-11T03:41:53;100823.66;;;1.14;72.63
9695;BME280;4690;52.422;13.486;2022-12-11T03:44:21;100819.59;;;1.18;72.85
9695;BME280;4690;52.422;13.486;2022-12-11T03:46:51;100815.06;;;1.19;72.02
9695;BME280;4690;52.422;13.486;2022-12-11T03:49:25;100816.72;;;1.11;73.07
9695;BME280;4690;52.422;13.486;2022-12-11T03:51:55;100812.53;;;1.17;73.39
9695;BME280;4690;52.422;13.486;2022-12-11T03:54:23;100814.19;;;1.18;72.44
9695;BME280;4690;52.422;13.486;2022-12-11T03:56:55;100820.28;;;1.20;73.22
9695;BME280;4690;52.422;13.486;2022-12-11T03:59:22;100813.91;;;1.21;73.09
9695;BME280;4690;52.422;13.486;2022-12-11T04:01:48;100814.75;;;1.22;73.13
9695;BME280;4690;52.422;13.486;2022-12-11T04:04:14;100820.50;;;1.27;72.42
9695;BME280;4690;52.422;13.486;2022-12-11T04:06:40;100814.91;;;1.28;73.35
9695;BME280;4690;52.422;13.486;2022-12-11T04:09:06;100815.59;;;1.30;72.94
9695;BME280;4690;52.422;13.486;2022-12-11T04:11:32;100819.16;;;1.31;72.99
9695;BME280;4690;52.422;13.486;2022-12-11T04:14:06;100816.09;;;1.26;73.42
9695;BME280;4690;52.422;13.486;2022-12-11T04:16:51;100812.41;;;1.27;73.16
9695;BME280;4690;52.422;13.486;2022-12-11T04:19:17;100809.84;;;1.25;72.77
9695;BME280;4690;52.422;13.486;2022-12-11T04:22:02;100812.41;;;1.27;73.23
9695;BME280;4690;52.422;13.486;2022-12-11T04:25:02;100812.69;;;1.24;73.01
9695;BME280;4690;52.422;13.486;2022-12-11T04:27:28;100807.97;;;1.18;72.99
9695;BME280;4690;52.422;13.486;2022-12-11T04:30:16;100807.31;;;1.24;72.41
9695;BME280;4690;52.422;13.486;2022-12-11T04:32:43;100807.00;;;1.27;73.28
9695;BME280;4690;52.422;13.486;2022-12-11T04:35:10;100807.31;;;1.24;72.17
9695;BME280;4690;52.422;13.486;2022-12-11T04:37:37;100801.72;;;1.17;72.41
9695;BME280;4690;52.422;13.486;2022-12-11T04:40:07;100802.22;;;1.12;72.76
9695;BME280;4690;52.422;13.486;2022-12-11T04:42:33;100791.59;;;1.11;72.39
9695;BME280;4690;52.422;13.486;2022-12-11T04:44:59;100794.28;;;1.11;73.01
9695;BME280;4690;52.422;13.486;2022-12-11T04:47:24;100797.69;;;1.13;72.82
9695;BME280;4690;52.422;13.486;2022-12-11T04:49:50;100791.59;;;1.11;73.15
9695;BME280;4690;52.422;13.486;2022-12-11T04:52:17;100792.75;;;1.08;73.28
9695;BME280;4690;52.422;13.486;2022-12-11T04:54:43;100792.28;;;1.13;72.63
9695;BME280;4690;52.422;13.486;2022-12-11T04:57:09;100797.50;;;1.15;73.24
9695;BME280;4690;52.422;13.486;2022-12-11T04:59:35;100792.09;;;1.15;73.47
9695;BME280;4690;52.422;13.486;2022-12-11T05:02:02;100798.34;;;1.15;73.20
9695;BME280;4690;52.422;13.486;2022-12-11T05:04:33;100798.00;;;1.18;73.14
9695;BME280;4690;52.422;13.486;2022-12-11T05:07:00;100795.16;;;1.20;72.81
9695;BME280;4690;52.422;13.486;2022-12-11T05:09:26;100795.16;;;1.20;72.72
9695;BME280;4690;52.422;13.486;2022-12-11T05:11:53;100798.19;;;1.17;73.58
9695;BME280;4690;52.422;13.486;2022-12-11T05:14:19;100796.66;;;1.14;73.24
9695;BME280;4690;52.422;13.486;2022-12-11T05:16:45;100790.94;;;1.17;74.22
9695;BME280;4690;52.422;13.486;2022-12-11T05:19:11;100790.56;;;1.12;73.61
9695;BME280;4690;52.422;13.486;2022-12-11T05:21:37;100786.03;;;1.04;73.61
9695;BME280;4690;52.422;13.486;2022-12-11T05:24:03;100789.72;;;1.03;73.77
9695;BME280;4690;52.422;13.486;2022-12-11T05:26:29;100791.25;;;1.06;73.99
9695;BME280;4690;52.422;13.486;2022-12-11T05:28:55;100794.25;;;0.95;74.67
9695;BME280;4690;52.422;13.486;2022-12-11T05:31:24;100797.13;;;0.93;75.33
9695;BME280;4690;52.422;13.486;2022-12-11T05:33:51;100794.25;;;1.03;74.34
9695;BME280;4690;52.422;13.486;2022-12-11T05:36:24;100787.66;;;0.97;75.19
9695;BME280;4690;52.422;13.486;2022-12-11T05:38:51;100791.91;;;1.00;75.35
9695;BME280;4690;52.422;13.486;2022-12-11T05:41:21;100787.53;;;0.99;75.91
9695;BME280;4690;52.422;13.486;2022-12-11T05:43:48;100781.94;;;1.00;75.15
9695;BME280;4690;52.422;13.486;2022-12-11T05:46:21;100776.88;;;0.97;75.90
9695;BME280;4690;52.422;13.486;2022-12-11T05:48:51;100772.69;;;1.03;75.06
9695;BME280;4690;52.422;13.486;2022-12-11T05:51:19;100778.59;;;1.06;75.50
9695;BME280;4690;52.422;13.486;2022-12-11T05:53:47;100780.94;;;1.09;74.93
9695;BME280;4690;52.422;13.486;2022-12-11T05:56:18;100776.44;;;1.10;74.81
9695;BME280;4690;52.422;13.486;2022-12-11T05:58:45;100768.13;;;1.03;74.69
9695;BME280;4690;52.422;13.486;2022-12-11T06:01:20;100772.00;;;1.01;75.46
9695;BME280;4690;52.422;13.486;2022-12-11T06:03:46;100763.38;;;0.97;75.31
9695;BME280;4690;52.422;13.486;2022-12-11T06:06:12;100772.00;;;1.01;75.83
9695;BME280;4690;52.422;13.486;2022-12-11T06:08:38;100774.22;;;1.05;75.88
9695;BME280;4690;52.422;13.486;2022-12-11T06:11:04;100778.56;;;0.98;75.57
9695;BME280;4690;52.422;13.486;2022-12-11T06:13:30;100776.69;;;0.91;76.34
9695;BME280;4690;52.422;13.486;2022-12-11T06:16:01;100779.66;;;0.71;76.79
9695;BME280;4690;52.422;13.486;2022-12-11T06:18:27;100781.50;;;0.71;76.84
9695;BME280;4690;52.422;13.486;2022-12-11T06:20:53;100776.69;;;0.48;77.20
9695;BME280;4690;52.422;13.486;2022-12-11T06:23:19;100781.38;;;0.46;76.67
9695;BME280;4690;52.422;13.486;2022-12-11T06:25:45;100773.34;;;0.54;76.48
9695;BME280;4690;52.422;13.486;2022-12-11T06:28:11;100770.47;;;0.56;76.40
9695;BME280;4690;52.422;13.486;2022-12-11T06:30:37;100766.81;;;0.65;75.82
9695;BME280;4690;52.422;13.486;2022-12-11T06:33:03;100768.31;;;0.67;75.71
9695;BME280;4690;52.422;13.486;2022-12-11T06:35:29;100769.72;;;0.72;75.04
9695;BME280;4690;52.422;13.486;2022-12-11T06:37:55;100763.97;;;0.75;74.30
9695;BME280;4690;52.422;13.486;2022-12-11T06:40:20;100779.94;;;0.60;75.83
9695;BME280;4690;52.422;13.486;2022-12-11T06:42:46;100772.50;;;0.62;75.58
9695;BME280;4690;52.422;13.486;2022-12-11T06:45:13;100781.75;;;0.51;74.96
9695;BME280;4690;52.422;13.486;2022-12-11T06:47:39;100777.03;;;0.53;74.47
9695;BME280;4690;52.422;13.486;2022-12-11T06:50:05;100779.84;;;0.43;75.13
9695;BME280;4690;52.422;13.486;2022-12-11T06:52:31;100788.59;;;0.37;74.60
9695;BME280;4690;52.422;13.486;2022-12-11T06:54:56;100785.03;;;0.11;75.00
9695;BME280;4690;52.422;13.486;2022-12-11T06:57:22;100791.63;;;0.16;74.85
9695;BME280;4690;52.422;13.486;2022-12-11T06:59:48;100784.94;;;0.20;74.58
9695;BME280;4690;52.422;13.486;2022-12-11T07:02:16;100788.72;;;0.36;74.48
9695;BME280;4690;52.422;13.486;2022-12-11T07:04:43;100795.66;;;0.38;74.32
9695;BME280;4690;52.422;13.486;2022-12-11T07:07:10;100794.22;;;0.52;73.72
9695;BME280;4690;52.422;13.486;2022-12-11T07:09:38;100797.97;;;0.59;73.20
9695;BME280;4690;52.422;13.486;2022-12-11T07:12:06;100795.81;;;0.37;73.78
9695;BME280;4690;52.422;13.486;2022-12-11T07:14:32;100796.44;;;0.31;73.62
9695;BME280;4690;52.422;13.486;2022-12-11T07:16:58;100796.28;;;0.32;73.51
9695;BME280;4690;52.422;13.486;2022-12-11T07:19:24;100799.31;;;0.29;74.23
9695;BME280;4690;52.422;13.486;2022-12-11T07:21:50;100792.81;;;0.40;73.48
9695;BME280;4690;52.422;13.486;2022-12-11T07:24:16;100798.34;;;0.38;74.14
9695;BME280;4690;52.422;13.486;2022-12-11T07:26:42;100796.16;;;0.42;73.11
9695;BME280;4690;52.422;13.486;2022-12-11T07:29:08;100797.13;;;0.33;73.78
9695;BME280;4690;52.422;13.486;2022-12-11T07:31:34;100799.34;;;0.37;72.88
9695;BME280;4690;52.422;13.486;2022-12-11T07:34:04;100797.69;;;0.44;73.04
9695;BME280;4690;52.422;13.486;2022-12-11T07:36:32;100800.19;;;0.38;73.74
9695;BME280;4690;52.422;13.486;2022-12-11T07:38:59;100797.66;;;0.36;73.19
9695;BME280;4690;52.422;13.486;2022-12-11T07:41:26;100798.88;;;0.42;73.82
9695;BME280;4690;52.422;13.486;2022-12-11T07:43:58;100800.94;;;0.48;73.44
9695;BME280;4690;52.422;13.486;2022-12-11T07:46:27;100803.22;;;0.35;73.27
9695;BME280;4690;52.422;13.486;2022-12-11T07:48:53;100801.31;;;0.27;74.40
9695;BME280;4690;52.422;13.486;2022-12-11T07:51:23;100813.22;;;0.42;73.59
9695;BME280;4690;52.422;13.486;2022-12-11T07:53:54;100803.09;;;0.44;72.59
9695;BME280;4690;52.422;13.486;2022-12-11T07:56:21;100805.69;;;0.28;72.11
9695;BME280;4690;52.422;13.486;2022-12-11T07:58:46;100802.69;;;0.31;71.03
9695;BME280;4690;52.422;13.486;2022-12-11T08:01:23;100803.53;;;0.32;69.91
9695;BME280;4690;52.422;13.486;2022-12-11T08:03:51;100803.63;;;0.22;69.54
9695;BME280;4690;52.422;13.486;2022-12-11T08:06:18;100806.50;;;0.20;70.62
9695;BME280;4690;52.422;13.486;2022-12-11T08:08:46;100804.19;;;0.26;70.46
9695;BME280;4690;52.422;13.486;2022-12-11T08:11:13;100817.00;;;0.32;69.69
9695;BME280;4690;52.422;13.486;2022-12-11T08:13:41;100810.72;;;0.23;69.90
9695;BME280;4690;52.422;13.486;2022-12-11T08:16:10;100811.06;;;0.28;69.16
9695;BME280;4690;52.422;13.486;2022-12-11T08:18:39;100809.75;;;0.06;70.32
9695;BME280;4690;52.422;13.486;2022-12-11T08:21:21;100814.47;;;0.04;69.79
9695;BME280;4690;52.422;13.486;2022-12-11T08:23:48;100816.78;;;-0.01;70.41
9695;BME280;4690;52.422;13.486;2022-12-11T08:26:20;100816.69;;;0.09;70.19
9695;BME280;4690;52.422;13.486;2022-12-11T08:28:47;100818.25;;;0.19;69.79
9695;BME280;4690;52.422;13.486;2022-12-11T08:31:14;100812.81;;;0.11;69.09
9695;BME280;4690;52.422;13.486;2022-12-11T08:33:41;100813.38;;;0.15;68.80
9695;BME280;4690;52.422;13.486;2022-12-11T08:36:10;100814.47;;;0.04;69.88
9695;BME280;4690;52.422;13.486;2022-12-11T08:38:36;100814.19;;;0.15;69.41
9695;BME280;4690;52.422;13.486;2022-12-11T08:41:17;100816.47;;;0.28;69.14
9695;BME280;4690;52.422;13.486;2022-12-11T08:43:43;100821.66;;;0.21;69.33
9695;BME280;4690;52.422;13.486;2022-12-11T08:46:10;100815.94;;;0.25;68.87
9695;BME280;4690;52.422;13.486;2022-12-11T08:48:38;100820.88;;;0.29;68.21
9695;BME280;4690;52.422;13.486;2022-12-11T08:51:08;100816.69;;;0.09;68.43
9695;BME280;4690;52.422;13.486;2022-12-11T08:53:35;100818.25;;;0.19;68.54
9695;BME280;4690;52.422;13.486;2022-12-11T08:56:14;100820.00;;;0.03;68.91
9695;BME280;4690;52.422;13.486;2022-12-11T08:58:41;100802.66;;;0.23;68.83
9695;BME280;4690;52.422;13.486;2022-12-11T09:01:22;100804.25;;;0.16;68.99
9695;BME280;4690;52.422;13.486;2022-12-11T09:03:49;100813.81;;;0.10;69.28
9695;BME280;4690;52.422;13.486;2022-12-11T09:06:19;100812.09;;;0.27;69.15
9695;BME280;4690;52.422;13.486;2022-12-11T09:08:47;100815.94;;;0.51;67.90
9695;BME280;4690;52.422;13.486;2022-12-11T09:11:21;100817.84;;;0.58;67.19
9695;BME280;4690;52.422;13.486;2022-12-11T09:13:48;100815.88;;;0.69;67.18
9695;BME280;4690;52.422;13.486;2022-12-11T09:16:17;100817.69;;;0.60;66.71
9695;BME280;4690;52.422;13.486;2022-12-11T09:18:49;100817.88;;;0.66;66.78
9695;BME280;4690;52.422;13.486;2022-12-11T09:21:18;100818.94;;;0.74;67.42
9695;BME280;4690;52.422;13.486;2022-12-11T09:23:45;100815.56;;;0.72;66.08
9695;BME280;4690;52.422;13.486;2022-12-11T09:26:14;100814.53;;;0.73;66.61
9695;BME280;4690;52.422;13.486;2022-12-11T09:28:41;100814.63;;;0.55;68.30
9695;BME280;4690;52.422;13.486;2022-12-11T09:31:21;100818.19;;;0.63;67.44
9695;BME280;4690;52.422;13.486;2022-12-11T09:33:49;100804.88;;;0.62;67.56
9695;BME280;4690;52.422;13.486;2022-12-11T09:36:16;100808.63;;;0.69;68.27
9695;BME280;4690;52.422;13.486;2022-12-11T09:38:42;100804.41;;;0.66;67.36
9695;BME280;4690;52.422;13.486;2022-12-11T09:44:33;100801.75;;;0.75;67.62
9695;BME280;4690;52.422;13.486;2022-12-11T09:47:00;100797.06;;;0.85;68.29
9695;BME280;4690;52.422;13.486;2022-12-11T09:49:40;100794.66;;;0.74;67.94
9695;BME280;4690;52.422;13.486;2022-12-11T09:52:31;100794.63;;;0.65;68.43
9695;BME280;4690;52.422;13.486;2022-12-11T09:55:00;100789.97;;;0.84;68.50
9695;BME280;4690;52.422;13.486;2022-12-11T09:58:15;100786.84;;;0.97;68.27
9695;BME280;4690;52.422;13.486;2022-12-11T10:01:07;100783.31;;;1.04;68.42
9695;BME280;4690;52.422;13.486;2022-12-11T10:06:55;100794.69;;;1.24;67.59
9695;BME280;4690;52.422;13.486;2022-12-11T10:17:45;100773.53;;;1.03;67.98
9695;BME280;4690;52.422;13.486;2022-12-11T10:20:44;100768.31;;;1.18;67.60
9695;BME280;4690;52.422;13.486;2022-12-11T10:23:19;100773.22;;;1.15;66.96
9695;BME280;4690;52.422;13.486;2022-12-11T10:26:05;100765.31;;;1.13;67.18
9695;BME280;4690;52.422;13.486;2022-12-11T10:28:31;100772.41;;;1.22;66.86
9695;BME280;4690;52.422;13.486;2022-12-11T10:34:00;100760.94;;;1.28;66.90
9695;BME280;4690;52.422;13.486;2022-12-11T10:36:36;100762.47;;;1.39;66.21
9695;BME280;4690;52.422;13.486;2022-12-11T10:39:11;100758.75;;;1.40;66.21
9695;BME280;4690;52.422;13.486;2022-12-11T10:41:43;100757.22;;;1.29;66.16
9695;BME280;4690;52.422;13.486;2022-12-11T10:44:27;100760.25;;;1.26;67.00
9695;BME280;4690;52.422;13.486;2022-12-11T10:47:20;100754.69;;;1.28;67.22
9695;BME280;4690;52.422;13.486;2022-12-11T10:50:01;100760.59;;;1.31;66.06
9695;BME280;4690;52.422;13.486;2022-12-11T10:52:32;100754.50;;;1.13;66.71
9695;BME280;4690;52.422;13.486;2022-12-11T10:55:22;100760.22;;;1.02;67.39
9695;BME280;4690;52.422;13.486;2022-12-11T10:57:59;100751.63;;;1.15;68.11
9695;BME280;4690;52.422;13.486;2022-12-11T11:00:37;100751.13;;;1.11;68.38
9695;BME280;4690;52.422;13.486;2022-12-11T11:03:25;100745.41;;;1.22;67.21
9695;BME280;4690;52.422;13.486;2022-12-11T11:06:14;100744.03;;;1.26;67.98
9695;BME280;4690;52.422;13.486;2022-12-11T11:08:48;100746.09;;;1.32;68.03
9695;BME280;4690;52.422;13.486;2022-12-11T11:14:17;100738.16;;;1.23;67.86
9695;BME280;4690;52.422;13.486;2022-12-11T11:16:47;100739.53;;;1.27;68.20
9695;BME280;4690;52.422;13.486;2022-12-11T11:19:32;100733.94;;;1.37;67.38
9695;BME280;4690;52.422;13.486;2022-12-11T11:22:07;100742.56;;;1.40;67.16
9695;BME280;4690;52.422;13.486;2022-12-11T11:24:53;100728.72;;;1.27;67.63
9695;BME280;4690;52.422;13.486;2022-12-11T11:27:41;100722.66;;;1.41;67.66
9695;BME280;4690;52.422;13.486;2022-12-11T11:30:34;100723.84;;;1.39;66.91
9695;BME280;4690;52.422;13.486;2022-12-11T11:33:17;100721.78;;;1.41;67.29
9695;BME280;4690;52.422;13.486;2022-12-11T11:36:05;100720.09;;;1.31;68.03
9695;BME280;4690;52.422;13.486;2022-12-11T11:38:50;100713.19;;;1.29;67.89
9695;BME280;4690;52.422;13.486;2022-12-11T11:41:30;100715.41;;;1.50;67.27
9695;BME280;4690;52.422;13.486;2022-12-11T11:44:03;100702.75;;;1.50;67.00
9695;BME280;4690;52.422;13.486;2022-12-11T11:46:40;100705.59;;;1.57;67.77
9695;BME280;4690;52.422;13.486;2022-12-11T11:49:29;100695.81;;;1.56;67.29
9695;BME280;4690;52.422;13.486;2022-12-11T11:52:40;100700.19;;;1.49;68.07
9695;BME280;4690;52.422;13.486;2022-12-11T11:55:25;100705.09;;;1.53;67.64
9695;BME280;4690;52.422;13.486;2022-12-11T11:58:26;100700.88;;;1.59;67.31
9695;BME280;4690;52.422;13.486;2022-12-11T12:00:53;100693.25;;;1.79;66.79
9695;BME280;4690;52.422;13.486;2022-12-11T12:03:22;100692.06;;;1.90;67.02
9695;BME280;4690;52.422;13.486;2022-12-11T12:15:09;100675.38;;;1.70;66.85
9695;BME280;4690;52.422;13.486;2022-12-11T12:17:57;100683.16;;;1.73;66.78
9695;BME280;4690;52.422;13.486;2022-12-11T12:20:47;100676.09;;;1.55;67.29
9695;BME280;4690;52.422;13.486;2022-12-11T12:23:37;100676.56;;;1.75;67.13
9695;BME280;4690;52.422;13.486;2022-12-11T12:31:47;100689.84;;;1.93;66.73
9695;BME280;4690;52.422;13.486;2022-12-11T12:37:06;100690.03;;;2.00;66.22
9695;BME280;4690;52.422;13.486;2022-12-11T12:48:03;100684.66;;;1.92;65.20
9695;BME280;4690;52.422;13.486;2022-12-11T12:50:43;100682.09;;;1.90;66.25
9695;BME280;4690;52.422;13.486;2022-12-11T12:53:26;100687.84;;;1.87;65.65
9695;BME280;4690;52.422;13.486;2022-12-11T12:55:53;100680.44;;;1.81;66.70
9695;BME280;4690;52.422;13.486;2022-12-11T13:01:26;100673.66;;;1.85;66.75
9695;BME280;4690;52.422;13.486;2022-12-11T13:03:58;100669.78;;;1.88;65.90
9695;BME280;4690;52.422;13.486;2022-12-11T13:06:42;100670.78;;;1.95;65.80
9695;BME280;4690;52.422;13.486;2022-12-11T13:09:26;100661.84;;;1.94;66.54
9695;BME280;4690;52.422;13.486;2022-12-11T13:11:55;100668.44;;;1.92;65.49
9695;BME280;4690;52.422;13.486;2022-12-11T13:14:31;100666.59;;;1.84;65.70
9695;BME280;4690;52.422;13.486;2022-12-11T13:17:37;100669.28;;;1.84;66.01
9695;BME280;4690;52.422;13.486;2022-12-11T13:20:23;100667.28;;;1.78;66.20
9695;BME280;4690;52.422;13.486;2022-12-11T13:23:18;100667.09;;;1.79;66.84
9695;BME280;4690;52.422;13.486;2022-12-11T13:25:56;100668.28;;;1.77;66.78
9695;BME280;4690;52.422;13.486;2022-12-11T13:33:47;100660.50;;;1.82;66.93
9695;BME280;4690;52.422;13.486;2022-12-11T13:38:57;100663.41;;;1.72;66.68
9695;BME280;4690;52.422;13.486;2022-12-11T13:41:27;100671.16;;;1.75;67.17
9695;BME280;4690;52.422;13.486;2022-12-11T13:43:53;100660.34;;;1.84;66.86
9695;BME280;4690;52.422;13.486;2022-12-11T13:46:26;100659.16;;;1.86;67.07
9695;BME280;4690;52.422;13.486;2022-12-11T13:48:58;100665.91;;;1.82;67.02
9695;BME280;4690;52.422;13.486;2022-12-11T13:51:29;100652.03;;;1.85;67.18
9695;BME280;4690;52.422;13.486;2022-12-11T13:54:22;100649.34;;;1.85;67.19
9695;BME280;4690;52.422;13.486;2022-12-11T13:59:36;100652.06;;;1.69;67.65
9695;BME280;4690;52.422;13.486;2022-12-11T14:02:38;100647.19;;;1.72;68.36
9695;BME280;4690;52.422;13.486;2022-12-11T14:05:11;100650.72;;;1.81;68.29
9695;BME280;4690;52.422;13.486;2022-12-11T14:07:52;100646.16;;;1.82;68.03
9695;BME280;4690;52.422;13.486;2022-12-11T14:10:39;100650.19;;;1.86;67.87
9695;BME280;4690;52.422;13.486;2022-12-11T14:13:20;100644.31;;;1.74;68.14
9695;BME280;4690;52.422;13.486;2022-12-11T14:15:47;100639.75;;;1.74;68.76
9695;BME280;4690;52.422;13.486;2022-12-11T14:18:25;100649.56;;;1.75;69.05
9695;BME280;4690;52.422;13.486;2022-12-11T14:20:58;100643.81;;;1.78;68.17
9695;BME280;4690;52.422;13.486;2022-12-11T14:23:34;100650.38;;;1.76;68.32
9695;BME280;4690;52.422;13.486;2022-12-11T14:26:17;100663.56;;;1.71;68.79
9695;BME280;4690;52.422;13.486;2022-12-11T14:28:43;100654.78;;;1.69;68.26
9695;BME280;4690;52.422;13.486;2022-12-11T14:31:17;100654.47;;;1.64;68.35
9695;BME280;4690;52.422;13.486;2022-12-11T14:33:53;100660.38;;;1.59;69.24
9695;BME280;4690;52.422;13.486;2022-12-11T14:36:21;100647.91;;;1.58;68.68
9695;BME280;4690;52.422;13.486;2022-12-11T14:39:01;100644.84;;;1.53;68.97
9695;BME280;4690;52.422;13.486;2022-12-11T14:44:17;100643.84;;;1.46;69.61
9695;BME280;4690;52.422;13.486;2022-12-11T14:46:55;100640.63;;;1.42;69.34
9695;BME280;4690;52.422;13.486;2022-12-11T14:49:44;100644.03;;;1.36;69.29
9695;BME280;4690;52.422;13.486;2022-12-11T14:52:28;100650.25;;;1.37;70.29
9695;BME280;4690;52.422;13.486;2022-12-11T14:55:07;100635.59;;;1.39;69.91
9695;BME280;4690;52.422;13.486;2022-12-11T14:57:34;100644.19;;;1.18;70.34
9695;BME280;4690;52.422;13.486;2022-12-11T15:00:01;100649.41;;;1.20;70.95
9695;BME280;4690;52.422;13.486;2022-12-11T15:02:33;100650.94;;;1.22;71.06
9695;BME280;4690;52.422;13.486;2022-12-11T15:05:16;100652.97;;;1.28;70.89
9695;BME280;4690;52.422;13.486;2022-12-11T15:10:35;100652.13;;;1.36;71.00